sensor_id;sensor_type;location;lat;lon;timestamp;P1;durP1;ratioP1;P2;durP2;ratioP2
13568;SDS011;6856;51.460;7.158;2023-12-14T00:01:31;9.00;;;6.53;;
13568;SDS011;6856;51.460;7.158;2023-12-14T00:04:04;9.17;;;7.03;;
13568;SDS011;6856;51.460;7.158;2023-12-14T00:06:40;7.90;;;6.43;;
13568;SDS011;6856;51.460;7.158;2023-12-14T00:09:13;10.30;;;7.77;;
13568;SDS011;6856;51.460;7.158;2023-12-14T00:11:46;8.20;;;6.93;;
13568;SDS011;6856;51.460;7.158;2023-12-14T00:14:20;9.37;;;7.63;;
13568;SDS011;6856;51.460;7.158;2023-12-14T00:16:53;9.33;;;7.60;;
13568;SDS011;6856;51.460;7.158;2023-12-14T00:19:30;10.50;;;7.53;;
13568;SDS011;6856;51.460;7.158;2023-12-14T00:22:06;7.90;;;6.83;;
13568;SDS011;6856;51.460;7.158;2023-12-14T00:24:39;7.83;;;6.77;;
13568;SDS011;6856;51.460;7.158;2023-12-14T00:27:14;9.67;;;7.83;;
13568;SDS011;6856;51.460;7.158;2023-12-14T00:29:48;9.33;;;8.17;;
13568;SDS011;6856;51.460;7.158;2023-12-14T00:32:22;11.07;;;9.00;;
13568;SDS011;6856;51.460;7.158;2023-12-14T00:34:58;8.93;;;7.80;;
13568;SDS011;6856;51.460;7.158;2023-12-14T00:37:34;10.97;;;8.73;;
13568;SDS011;6856;51.460;7.158;2023-12-14T00:40:08;9.70;;;7.90;;
13568;SDS011;6856;51.460;7.158;2023-12-14T00:42:42;8.93;;;7.57;;
13568;SDS011;6856;51.460;7.158;2023-12-14T00:45:19;8.67;;;7.40;;
13568;SDS011;6856;51.460;7.158;2023-12-14T00:47:52;9.17;;;7.97;;
13568;SDS011;6856;51.460;7.158;2023-12-14T00:50:26;8.30;;;7.17;;
13568;SDS011;6856;51.460;7.158;2023-12-14T00:53:01;9.43;;;7.60;;
13568;SDS011;6856;51.460;7.158;2023-12-14T00:55:34;7.23;;;6.07;;
13568;SDS011;6856;51.460;7.158;2023-12-14T00:58:08;9.63;;;6.70;;
13568;SDS011;6856;51.460;7.158;2023-12-14T01:00:44;7.20;;;5.87;;
13568;SDS011;6856;51.460;7.158;2023-12-14T01:03:19;7.27;;;5.93;;
13568;SDS011;6856;51.460;7.158;2023-12-14T01:05:53;6.40;;;5.27;;
13568;SDS011;6856;51.460;7.158;2023-12-14T01:08:29;7.00;;;5.57;;
13568;SDS011;6856;51.460;7.158;2023-12-14T01:11:04;6.60;;;5.37;;
13568;SDS011;6856;51.460;7.158;2023-12-14T01:13:39;5.73;;;4.53;;
13568;SDS011;6856;51.460;7.158;2023-12-14T01:16:13;5.30;;;4.70;;
13568;SDS011;6856;51.460;7.158;2023-12-14T01:18:50;4.73;;;3.77;;
13568;SDS011;6856;51.460;7.158;2023-12-14T01:21:24;5.37;;;4.10;;
13568;SDS011;6856;51.460;7.158;2023-12-14T01:23:59;4.63;;;3.90;;
13568;SDS011;6856;51.460;7.158;2023-12-14T01:26:34;5.63;;;4.43;;
13568;SDS011;6856;51.460;7.158;2023-12-14T01:29:08;4.90;;;4.10;;
13568;SDS011;6856;51.460;7.158;2023-12-14T01:31:44;5.27;;;4.37;;
13568;SDS011;6856;51.460;7.158;2023-12-14T01:34:18;5.77;;;4.87;;
13568;SDS011;6856;51.460;7.158;2023-12-14T01:36:53;5.40;;;4.40;;
13568;SDS011;6856;51.460;7.158;2023-12-14T01:39:29;5.03;;;4.23;;
13568;SDS011;6856;51.460;7.158;2023-12-14T01:42:04;5.10;;;4.07;;
13568;SDS011;6856;51.460;7.158;2023-12-14T01:44:38;5.60;;;4.27;;
13568;SDS011;6856;51.460;7.158;2023-12-14T01:47:12;5.43;;;4.37;;
13568;SDS011;6856;51.460;7.158;2023-12-14T01:49:49;4.80;;;3.83;;
13568;SDS011;6856;51.460;7.158;2023-12-14T01:52:23;5.43;;;4.40;;
13568;SDS011;6856;51.460;7.158;2023-12-14T01:54:58;5.77;;;4.83;;
13568;SDS011;6856;51.460;7.158;2023-12-14T01:57:34;4.90;;;4.20;;
13568;SDS011;6856;51.460;7.158;2023-12-14T02:00:08;4.90;;;4.10;;
13568;SDS011;6856;51.460;7.158;2023-12-14T02:02:53;5.77;;;4.40;;
13568;SDS011;6856;51.460;7.158;2023-12-14T02:05:28;4.77;;;3.97;;
13568;SDS011;6856;51.460;7.158;2023-12-14T02:08:01;6.07;;;4.37;;
13568;SDS011;6856;51.460;7.158;2023-12-14T02:10:39;5.77;;;4.90;;
13568;SDS011;6856;51.460;7.158;2023-12-14T02:13:12;5.93;;;5.03;;
13568;SDS011;6856;51.460;7.158;2023-12-14T02:15:46;5.20;;;4.10;;
13568;SDS011;6856;51.460;7.158;2023-12-14T02:18:20;4.50;;;3.23;;
13568;SDS011;6856;51.460;7.158;2023-12-14T02:20:54;5.30;;;4.00;;
13568;SDS011;6856;51.460;7.158;2023-12-14T02:23:29;4.93;;;3.90;;
13568;SDS011;6856;51.460;7.158;2023-12-14T02:26:03;4.83;;;4.03;;
13568;SDS011;6856;51.460;7.158;2023-12-14T02:28:36;6.57;;;5.40;;
13568;SDS011;6856;51.460;7.158;2023-12-14T02:31:10;5.77;;;4.70;;
13568;SDS011;6856;51.460;7.158;2023-12-14T02:33:44;5.90;;;4.83;;
13568;SDS011;6856;51.460;7.158;2023-12-14T02:36:18;6.17;;;4.90;;
13568;SDS011;6856;51.460;7.158;2023-12-14T02:38:53;6.77;;;5.57;;
13568;SDS011;6856;51.460;7.158;2023-12-14T02:41:27;7.07;;;5.57;;
13568;SDS011;6856;51.460;7.158;2023-12-14T02:44:01;6.70;;;5.90;;
13568;SDS011;6856;51.460;7.158;2023-12-14T02:46:36;7.83;;;5.93;;
13568;SDS011;6856;51.460;7.158;2023-12-14T02:49:11;10.23;;;6.93;;
13568;SDS011;6856;51.460;7.158;2023-12-14T02:51:45;9.90;;;8.00;;
13568;SDS011;6856;51.460;7.158;2023-12-14T02:54:20;13.63;;;10.40;;
13568;SDS011;6856;51.460;7.158;2023-12-14T02:56:53;12.57;;;9.63;;
13568;SDS011;6856;51.460;7.158;2023-12-14T02:59:27;11.60;;;8.00;;
13568;SDS011;6856;51.460;7.158;2023-12-14T03:02:01;10.47;;;7.70;;
13568;SDS011;6856;51.460;7.158;2023-12-14T03:04:37;12.47;;;9.97;;
13568;SDS011;6856;51.460;7.158;2023-12-14T03:07:13;10.13;;;7.53;;
13568;SDS011;6856;51.460;7.158;2023-12-14T03:09:48;9.07;;;7.93;;
13568;SDS011;6856;51.460;7.158;2023-12-14T03:12:24;8.87;;;7.27;;
13568;SDS011;6856;51.460;7.158;2023-12-14T03:14:58;7.63;;;6.20;;
13568;SDS011;6856;51.460;7.158;2023-12-14T03:17:32;6.80;;;5.63;;
13568;SDS011;6856;51.460;7.158;2023-12-14T03:20:06;7.57;;;6.33;;
13568;SDS011;6856;51.460;7.158;2023-12-14T03:22:43;8.83;;;7.37;;
13568;SDS011;6856;51.460;7.158;2023-12-14T03:25:18;8.07;;;7.07;;
13568;SDS011;6856;51.460;7.158;2023-12-14T03:27:53;8.30;;;6.80;;
13568;SDS011;6856;51.460;7.158;2023-12-14T03:30:30;7.57;;;6.20;;
13568;SDS011;6856;51.460;7.158;2023-12-14T03:33:04;8.30;;;6.83;;
13568;SDS011;6856;51.460;7.158;2023-12-14T03:35:39;8.40;;;6.63;;
13568;SDS011;6856;51.460;7.158;2023-12-14T03:38:15;7.73;;;6.63;;
13568;SDS011;6856;51.460;7.158;2023-12-14T03:40:50;10.70;;;7.57;;
13568;SDS011;6856;51.460;7.158;2023-12-14T03:43:24;7.97;;;6.93;;
13568;SDS011;6856;51.460;7.158;2023-12-14T03:46:00;9.60;;;7.70;;
13568;SDS011;6856;51.460;7.158;2023-12-14T03:48:34;8.73;;;7.07;;
13568;SDS011;6856;51.460;7.158;2023-12-14T03:51:09;8.23;;;6.60;;
13568;SDS011;6856;51.460;7.158;2023-12-14T03:53:43;7.73;;;6.70;;
13568;SDS011;6856;51.460;7.158;2023-12-14T03:56:18;8.13;;;6.47;;
13568;SDS011;6856;51.460;7.158;2023-12-14T03:58:51;8.03;;;6.53;;
13568;SDS011;6856;51.460;7.158;2023-12-14T04:01:25;7.53;;;6.33;;
13568;SDS011;6856;51.460;7.158;2023-12-14T04:03:59;7.40;;;5.83;;
13568;SDS011;6856;51.460;7.158;2023-12-14T04:06:33;6.53;;;5.60;;
13568;SDS011;6856;51.460;7.158;2023-12-14T04:09:07;5.83;;;4.80;;
13568;SDS011;6856;51.460;7.158;2023-12-14T04:11:44;5.77;;;4.97;;
13568;SDS011;6856;51.460;7.158;2023-12-14T04:14:18;5.40;;;4.83;;
13568;SDS011;6856;51.460;7.158;2023-12-14T04:16:52;6.13;;;4.90;;
13568;SDS011;6856;51.460;7.158;2023-12-14T04:19:27;6.03;;;4.93;;
13568;SDS011;6856;51.460;7.158;2023-12-14T04:22:01;6.13;;;5.00;;
13568;SDS011;6856;51.460;7.158;2023-12-14T04:24:35;5.80;;;4.93;;
13568;SDS011;6856;51.460;7.158;2023-12-14T04:27:11;5.43;;;4.40;;
13568;SDS011;6856;51.460;7.158;2023-12-14T04:29:45;5.70;;;4.33;;
13568;SDS011;6856;51.460;7.158;2023-12-14T04:32:19;5.37;;;4.30;;
13568;SDS011;6856;51.460;7.158;2023-12-14T04:34:53;6.27;;;5.20;;
13568;SDS011;6856;51.460;7.158;2023-12-14T04:37:27;5.47;;;4.53;;
13568;SDS011;6856;51.460;7.158;2023-12-14T04:40:02;6.17;;;4.67;;
13568;SDS011;6856;51.460;7.158;2023-12-14T04:42:39;5.50;;;4.70;;
13568;SDS011;6856;51.460;7.158;2023-12-14T04:45:13;5.33;;;4.43;;
13568;SDS011;6856;51.460;7.158;2023-12-14T04:47:48;5.17;;;4.60;;
13568;SDS011;6856;51.460;7.158;2023-12-14T04:50:24;6.10;;;5.50;;
13568;SDS011;6856;51.460;7.158;2023-12-14T04:52:58;7.10;;;5.50;;
13568;SDS011;6856;51.460;7.158;2023-12-14T04:55:32;6.23;;;5.07;;
13568;SDS011;6856;51.460;7.158;2023-12-14T04:58:08;5.63;;;4.80;;
13568;SDS011;6856;51.460;7.158;2023-12-14T05:00:45;4.87;;;4.23;;
13568;SDS011;6856;51.460;7.158;2023-12-14T05:03:19;5.10;;;4.40;;
13568;SDS011;6856;51.460;7.158;2023-12-14T05:05:54;6.40;;;4.77;;
13568;SDS011;6856;51.460;7.158;2023-12-14T05:08:28;5.20;;;4.50;;
13568;SDS011;6856;51.460;7.158;2023-12-14T05:11:02;5.97;;;5.10;;
13568;SDS011;6856;51.460;7.158;2023-12-14T05:13:38;6.40;;;4.80;;
13568;SDS011;6856;51.460;7.158;2023-12-14T05:16:12;5.50;;;4.03;;
13568;SDS011;6856;51.460;7.158;2023-12-14T05:18:47;5.10;;;4.23;;
13568;SDS011;6856;51.460;7.158;2023-12-14T05:21:24;5.83;;;4.90;;
13568;SDS011;6856;51.460;7.158;2023-12-14T05:23:59;5.70;;;5.00;;
13568;SDS011;6856;51.460;7.158;2023-12-14T05:26:33;5.97;;;4.93;;
13568;SDS011;6856;51.460;7.158;2023-12-14T05:29:08;6.57;;;5.53;;
13568;SDS011;6856;51.460;7.158;2023-12-14T05:31:41;6.47;;;4.90;;
13568;SDS011;6856;51.460;7.158;2023-12-14T05:34:15;6.40;;;5.10;;
13568;SDS011;6856;51.460;7.158;2023-12-14T05:36:49;5.40;;;4.67;;
13568;SDS011;6856;51.460;7.158;2023-12-14T05:39:23;5.87;;;5.13;;
13568;SDS011;6856;51.460;7.158;2023-12-14T05:41:57;5.83;;;4.87;;
13568;SDS011;6856;51.460;7.158;2023-12-14T05:44:33;5.77;;;5.03;;
13568;SDS011;6856;51.460;7.158;2023-12-14T05:47:07;5.27;;;4.50;;
13568;SDS011;6856;51.460;7.158;2023-12-14T05:49:41;5.03;;;4.30;;
13568;SDS011;6856;51.460;7.158;2023-12-14T05:52:15;5.90;;;5.27;;
13568;SDS011;6856;51.460;7.158;2023-12-14T05:54:49;5.53;;;4.73;;
13568;SDS011;6856;51.460;7.158;2023-12-14T05:57:23;5.43;;;4.90;;
13568;SDS011;6856;51.460;7.158;2023-12-14T05:59:58;5.83;;;4.93;;
13568;SDS011;6856;51.460;7.158;2023-12-14T06:02:31;8.27;;;6.13;;
13568;SDS011;6856;51.460;7.158;2023-12-14T06:05:06;6.60;;;5.17;;
13568;SDS011;6856;51.460;7.158;2023-12-14T06:07:41;7.60;;;5.93;;
13568;SDS011;6856;51.460;7.158;2023-12-14T06:10:15;7.20;;;6.37;;
13568;SDS011;6856;51.460;7.158;2023-12-14T06:12:49;8.10;;;6.47;;
13568;SDS011;6856;51.460;7.158;2023-12-14T06:15:24;6.50;;;5.37;;
13568;SDS011;6856;51.460;7.158;2023-12-14T06:17:58;6.77;;;5.47;;
13568;SDS011;6856;51.460;7.158;2023-12-14T06:20:33;7.10;;;6.40;;
13568;SDS011;6856;51.460;7.158;2023-12-14T06:23:07;7.63;;;6.20;;
13568;SDS011;6856;51.460;7.158;2023-12-14T06:25:42;6.97;;;5.97;;
13568;SDS011;6856;51.460;7.158;2023-12-14T06:28:16;6.47;;;5.57;;
13568;SDS011;6856;51.460;7.158;2023-12-14T06:30:53;7.80;;;6.67;;
13568;SDS011;6856;51.460;7.158;2023-12-14T06:33:26;7.60;;;6.50;;
13568;SDS011;6856;51.460;7.158;2023-12-14T06:36:02;7.87;;;6.67;;
13568;SDS011;6856;51.460;7.158;2023-12-14T06:38:38;7.57;;;6.43;;
13568;SDS011;6856;51.460;7.158;2023-12-14T06:41:19;7.63;;;6.57;;
13568;SDS011;6856;51.460;7.158;2023-12-14T06:43:54;7.87;;;6.73;;
13568;SDS011;6856;51.460;7.158;2023-12-14T06:46:30;9.10;;;7.80;;
13568;SDS011;6856;51.460;7.158;2023-12-14T06:49:04;9.60;;;7.83;;
13568;SDS011;6856;51.460;7.158;2023-12-14T06:51:43;8.40;;;6.57;;
13568;SDS011;6856;51.460;7.158;2023-12-14T06:54:17;8.53;;;6.40;;
13568;SDS011;6856;51.460;7.158;2023-12-14T06:56:51;8.10;;;6.37;;
13568;SDS011;6856;51.460;7.158;2023-12-14T06:59:28;7.57;;;6.40;;
13568;SDS011;6856;51.460;7.158;2023-12-14T07:02:05;7.20;;;5.83;;
13568;SDS011;6856;51.460;7.158;2023-12-14T07:04:39;8.70;;;7.00;;
13568;SDS011;6856;51.460;7.158;2023-12-14T07:07:14;7.50;;;6.27;;
13568;SDS011;6856;51.460;7.158;2023-12-14T07:09:50;7.77;;;6.80;;
13568;SDS011;6856;51.460;7.158;2023-12-14T07:12:24;9.83;;;7.47;;
13568;SDS011;6856;51.460;7.158;2023-12-14T07:15:01;8.57;;;7.07;;
13568;SDS011;6856;51.460;7.158;2023-12-14T07:17:38;8.13;;;6.90;;
13568;SDS011;6856;51.460;7.158;2023-12-14T07:20:12;8.33;;;7.23;;
13568;SDS011;6856;51.460;7.158;2023-12-14T07:22:47;8.93;;;7.40;;
13568;SDS011;6856;51.460;7.158;2023-12-14T07:25:20;8.87;;;7.07;;
13568;SDS011;6856;51.460;7.158;2023-12-14T07:27:54;7.40;;;6.53;;
13568;SDS011;6856;51.460;7.158;2023-12-14T07:30:28;7.43;;;6.57;;
13568;SDS011;6856;51.460;7.158;2023-12-14T07:33:03;7.37;;;6.30;;
13568;SDS011;6856;51.460;7.158;2023-12-14T07:35:39;7.60;;;6.30;;
13568;SDS011;6856;51.460;7.158;2023-12-14T07:38:13;7.27;;;5.97;;
13568;SDS011;6856;51.460;7.158;2023-12-14T07:40:48;7.53;;;6.33;;
13568;SDS011;6856;51.460;7.158;2023-12-14T07:43:25;7.30;;;6.17;;
13568;SDS011;6856;51.460;7.158;2023-12-14T07:45:59;8.00;;;6.67;;
13568;SDS011;6856;51.460;7.158;2023-12-14T07:48:34;8.00;;;6.30;;
13568;SDS011;6856;51.460;7.158;2023-12-14T07:51:08;7.80;;;6.60;;
13568;SDS011;6856;51.460;7.158;2023-12-14T07:53:42;7.10;;;6.00;;
13568;SDS011;6856;51.460;7.158;2023-12-14T07:56:18;6.10;;;5.50;;
13568;SDS011;6856;51.460;7.158;2023-12-14T07:58:56;7.80;;;6.50;;
13568;SDS011;6856;51.460;7.158;2023-12-14T08:01:30;9.13;;;6.83;;
13568;SDS011;6856;51.460;7.158;2023-12-14T08:04:05;7.73;;;6.63;;
13568;SDS011;6856;51.460;7.158;2023-12-14T08:06:40;7.63;;;6.43;;
13568;SDS011;6856;51.460;7.158;2023-12-14T08:09:14;7.50;;;6.20;;
13568;SDS011;6856;51.460;7.158;2023-12-14T08:11:48;6.93;;;6.07;;
13568;SDS011;6856;51.460;7.158;2023-12-14T08:14:24;8.80;;;6.60;;
13568;SDS011;6856;51.460;7.158;2023-12-14T08:16:58;6.67;;;5.77;;
13568;SDS011;6856;51.460;7.158;2023-12-14T08:19:38;8.23;;;6.83;;
13568;SDS011;6856;51.460;7.158;2023-12-14T08:22:12;8.87;;;7.40;;
13568;SDS011;6856;51.460;7.158;2023-12-14T08:24:47;9.97;;;8.10;;
13568;SDS011;6856;51.460;7.158;2023-12-14T08:27:21;9.33;;;7.90;;
13568;SDS011;6856;51.460;7.158;2023-12-14T08:29:57;8.63;;;7.40;;
13568;SDS011;6856;51.460;7.158;2023-12-14T08:32:30;9.73;;;7.10;;
13568;SDS011;6856;51.460;7.158;2023-12-14T08:35:07;8.80;;;7.50;;
13568;SDS011;6856;51.460;7.158;2023-12-14T08:37:41;8.60;;;7.13;;
13568;SDS011;6856;51.460;7.158;2023-12-14T08:40:16;7.97;;;7.03;;
13568;SDS011;6856;51.460;7.158;2023-12-14T08:42:50;8.90;;;7.60;;
13568;SDS011;6856;51.460;7.158;2023-12-14T08:45:24;9.20;;;7.27;;
13568;SDS011;6856;51.460;7.158;2023-12-14T08:47:57;10.03;;;8.47;;
13568;SDS011;6856;51.460;7.158;2023-12-14T08:50:33;7.93;;;6.97;;
13568;SDS011;6856;51.460;7.158;2023-12-14T17:39:01;7.10;;;5.77;;
13568;SDS011;6856;51.460;7.158;2023-12-14T17:41:44;9.73;;;7.57;;
13568;SDS011;6856;51.460;7.158;2023-12-14T17:44:18;11.30;;;9.50;;
13568;SDS011;6856;51.460;7.158;2023-12-14T17:46:51;10.60;;;8.83;;
13568;SDS011;6856;51.460;7.158;2023-12-14T17:49:30;9.77;;;8.10;;
13568;SDS011;6856;51.460;7.158;2023-12-14T17:52:04;10.20;;;8.83;;
13568;SDS011;6856;51.460;7.158;2023-12-14T17:54:52;10.60;;;8.67;;
13568;SDS011;6856;51.460;7.158;2023-12-14T17:57:28;10.87;;;9.27;;
13568;SDS011;6856;51.460;7.158;2023-12-14T18:00:03;11.87;;;9.60;;
13568;SDS011;6856;51.460;7.158;2023-12-14T18:02:40;10.53;;;8.90;;
13568;SDS011;6856;51.460;7.158;2023-12-14T18:05:14;10.03;;;8.93;;
13568;SDS011;6856;51.460;7.158;2023-12-14T18:07:50;10.23;;;8.87;;
13568;SDS011;6856;51.460;7.158;2023-12-14T18:10:28;9.83;;;8.80;;
13568;SDS011;6856;51.460;7.158;2023-12-14T18:13:02;9.50;;;8.50;;
13568;SDS011;6856;51.460;7.158;2023-12-14T18:15:40;10.03;;;8.37;;
13568;SDS011;6856;51.460;7.158;2023-12-14T18:18:17;11.30;;;9.73;;
13568;SDS011;6856;51.460;7.158;2023-12-14T18:20:51;14.50;;;12.13;;
13568;SDS011;6856;51.460;7.158;2023-12-14T18:23:26;15.43;;;13.17;;
13568;SDS011;6856;51.460;7.158;2023-12-14T18:26:01;14.37;;;10.83;;
13568;SDS011;6856;51.460;7.158;2023-12-14T18:28:38;22.60;;;15.80;;
13568;SDS011;6856;51.460;7.158;2023-12-14T18:31:13;23.30;;;17.37;;
13568;SDS011;6856;51.460;7.158;2023-12-14T18:33:49;24.87;;;19.33;;
13568;SDS011;6856;51.460;7.158;2023-12-14T18:36:25;22.77;;;16.27;;
13568;SDS011;6856;51.460;7.158;2023-12-14T18:39:01;15.70;;;12.63;;
13568;SDS011;6856;51.460;7.158;2023-12-14T18:41:38;11.87;;;10.50;;
13568;SDS011;6856;51.460;7.158;2023-12-14T18:44:13;11.63;;;10.13;;
13568;SDS011;6856;51.460;7.158;2023-12-14T18:46:48;12.33;;;10.60;;
13568;SDS011;6856;51.460;7.158;2023-12-14T18:49:23;11.63;;;10.07;;
13568;SDS011;6856;51.460;7.158;2023-12-14T18:52:05;11.23;;;9.67;;
13568;SDS011;6856;51.460;7.158;2023-12-14T18:54:39;8.47;;;7.60;;
13568;SDS011;6856;51.460;7.158;2023-12-14T18:57:14;9.43;;;8.23;;
13568;SDS011;6856;51.460;7.158;2023-12-14T18:59:50;9.83;;;8.00;;
13568;SDS011;6856;51.460;7.158;2023-12-14T19:02:24;17.50;;;12.83;;
13568;SDS011;6856;51.460;7.158;2023-12-14T19:04:59;23.23;;;16.40;;
13568;SDS011;6856;51.460;7.158;2023-12-14T19:07:34;15.73;;;12.07;;
13568;SDS011;6856;51.460;7.158;2023-12-14T19:10:09;12.23;;;9.60;;
13568;SDS011;6856;51.460;7.158;2023-12-14T19:12:46;10.87;;;8.37;;
13568;SDS011;6856;51.460;7.158;2023-12-14T19:15:22;9.27;;;7.93;;
13568;SDS011;6856;51.460;7.158;2023-12-14T19:17:56;10.27;;;8.60;;
13568;SDS011;6856;51.460;7.158;2023-12-14T19:20:30;10.60;;;7.67;;
13568;SDS011;6856;51.460;7.158;2023-12-14T19:23:04;9.67;;;7.77;;
13568;SDS011;6856;51.460;7.158;2023-12-14T19:25:42;10.20;;;8.33;;
13568;SDS011;6856;51.460;7.158;2023-12-14T19:28:18;10.43;;;8.73;;
13568;SDS011;6856;51.460;7.158;2023-12-14T19:30:52;9.80;;;8.07;;
13568;SDS011;6856;51.460;7.158;2023-12-14T19:33:27;9.60;;;8.07;;
13568;SDS011;6856;51.460;7.158;2023-12-14T19:36:01;11.40;;;8.43;;
13568;SDS011;6856;51.460;7.158;2023-12-14T19:38:44;9.70;;;7.80;;
13568;SDS011;6856;51.460;7.158;2023-12-14T19:41:22;11.10;;;8.80;;
13568;SDS011;6856;51.460;7.158;2023-12-14T19:43:57;9.93;;;8.80;;
13568;SDS011;6856;51.460;7.158;2023-12-14T19:46:33;9.93;;;8.07;;
13568;SDS011;6856;51.460;7.158;2023-12-14T19:49:07;10.73;;;8.73;;
13568;SDS011;6856;51.460;7.158;2023-12-14T19:51:41;11.93;;;10.37;;
13568;SDS011;6856;51.460;7.158;2023-12-14T19:54:15;13.00;;;11.53;;
13568;SDS011;6856;51.460;7.158;2023-12-14T19:56:50;12.20;;;10.90;;
13568;SDS011;6856;51.460;7.158;2023-12-14T19:59:28;12.60;;;10.40;;
13568;SDS011;6856;51.460;7.158;2023-12-14T20:02:02;13.17;;;11.30;;
13568;SDS011;6856;51.460;7.158;2023-12-14T20:04:36;12.73;;;10.53;;
13568;SDS011;6856;51.460;7.158;2023-12-14T20:07:11;11.73;;;10.40;;
13568;SDS011;6856;51.460;7.158;2023-12-14T20:09:44;13.53;;;11.07;;
13568;SDS011;6856;51.460;7.158;2023-12-14T20:12:33;12.60;;;10.30;;
13568;SDS011;6856;51.460;7.158;2023-12-14T20:15:10;13.93;;;12.07;;
13568;SDS011;6856;51.460;7.158;2023-12-14T20:17:46;13.33;;;11.10;;
13568;SDS011;6856;51.460;7.158;2023-12-14T20:20:20;14.07;;;12.27;;
13568;SDS011;6856;51.460;7.158;2023-12-14T20:22:54;12.80;;;10.77;;
13568;SDS011;6856;51.460;7.158;2023-12-14T20:25:29;11.73;;;10.40;;
13568;SDS011;6856;51.460;7.158;2023-12-14T20:28:04;13.80;;;11.47;;
13568;SDS011;6856;51.460;7.158;2023-12-14T20:30:43;11.20;;;10.00;;
13568;SDS011;6856;51.460;7.158;2023-12-14T20:33:18;12.03;;;10.40;;
13568;SDS011;6856;51.460;7.158;2023-12-14T20:35:53;12.20;;;10.90;;
13568;SDS011;6856;51.460;7.158;2023-12-14T20:38:27;13.40;;;11.80;;
13568;SDS011;6856;51.460;7.158;2023-12-14T20:41:02;13.00;;;11.03;;
13568;SDS011;6856;51.460;7.158;2023-12-14T20:43:36;12.53;;;10.23;;
13568;SDS011;6856;51.460;7.158;2023-12-14T20:46:12;12.70;;;10.60;;
13568;SDS011;6856;51.460;7.158;2023-12-14T20:48:46;14.83;;;10.47;;
13568;SDS011;6856;51.460;7.158;2023-12-14T20:51:20;12.30;;;10.80;;
13568;SDS011;6856;51.460;7.158;2023-12-14T20:53:56;11.63;;;9.43;;
13568;SDS011;6856;51.460;7.158;2023-12-14T20:56:30;13.77;;;10.90;;
13568;SDS011;6856;51.460;7.158;2023-12-14T20:59:05;12.83;;;11.13;;
13568;SDS011;6856;51.460;7.158;2023-12-14T21:01:41;13.50;;;11.07;;
13568;SDS011;6856;51.460;7.158;2023-12-14T21:04:14;13.00;;;10.77;;
13568;SDS011;6856;51.460;7.158;2023-12-14T21:06:48;12.60;;;11.27;;
13568;SDS011;6856;51.460;7.158;2023-12-14T21:09:23;12.50;;;10.60;;
13568;SDS011;6856;51.460;7.158;2023-12-14T21:12:01;14.07;;;11.50;;
13568;SDS011;6856;51.460;7.158;2023-12-14T21:14:36;12.83;;;10.50;;
13568;SDS011;6856;51.460;7.158;2023-12-14T21:17:11;12.23;;;10.63;;
13568;SDS011;6856;51.460;7.158;2023-12-14T21:19:45;12.23;;;10.90;;
13568;SDS011;6856;51.460;7.158;2023-12-14T21:22:21;12.47;;;10.67;;
13568;SDS011;6856;51.460;7.158;2023-12-14T21:24:55;13.30;;;10.53;;
13568;SDS011;6856;51.460;7.158;2023-12-14T21:27:32;12.97;;;11.40;;
13568;SDS011;6856;51.460;7.158;2023-12-14T21:30:22;14.33;;;12.47;;
13568;SDS011;6856;51.460;7.158;2023-12-14T21:32:56;13.20;;;10.80;;
13568;SDS011;6856;51.460;7.158;2023-12-14T21:35:30;14.03;;;12.13;;
13568;SDS011;6856;51.460;7.158;2023-12-14T21:38:07;12.90;;;10.90;;
13568;SDS011;6856;51.460;7.158;2023-12-14T21:40:44;12.97;;;10.47;;
13568;SDS011;6856;51.460;7.158;2023-12-14T21:43:21;15.10;;;12.07;;
13568;SDS011;6856;51.460;7.158;2023-12-14T21:45:54;14.17;;;11.03;;
13568;SDS011;6856;51.460;7.158;2023-12-14T21:48:30;13.27;;;11.27;;
13568;SDS011;6856;51.460;7.158;2023-12-14T21:51:04;13.27;;;11.13;;
13568;SDS011;6856;51.460;7.158;2023-12-14T21:53:38;14.57;;;11.93;;
13568;SDS011;6856;51.460;7.158;2023-12-14T21:56:12;13.40;;;10.90;;
13568;SDS011;6856;51.460;7.158;2023-12-14T21:58:46;12.17;;;10.37;;
13568;SDS011;6856;51.460;7.158;2023-12-14T22:01:20;13.10;;;11.43;;
13568;SDS011;6856;51.460;7.158;2023-12-14T22:03:56;13.57;;;11.13;;
13568;SDS011;6856;51.460;7.158;2023-12-14T22:06:33;14.40;;;11.47;;
13568;SDS011;6856;51.460;7.158;2023-12-14T22:09:08;15.27;;;11.50;;
13568;SDS011;6856;51.460;7.158;2023-12-14T22:11:42;13.00;;;11.00;;
13568;SDS011;6856;51.460;7.158;2023-12-14T22:14:16;14.10;;;11.97;;
13568;SDS011;6856;51.460;7.158;2023-12-14T22:16:52;14.00;;;11.37;;
13568;SDS011;6856;51.460;7.158;2023-12-14T22:19:27;13.77;;;11.20;;
13568;SDS011;6856;51.460;7.158;2023-12-14T22:22:01;14.30;;;11.43;;
13568;SDS011;6856;51.460;7.158;2023-12-14T22:24:35;12.23;;;10.83;;
13568;SDS011;6856;51.460;7.158;2023-12-14T22:27:09;12.90;;;10.93;;
13568;SDS011;6856;51.460;7.158;2023-12-14T22:29:43;13.37;;;11.77;;
13568;SDS011;6856;51.460;7.158;2023-12-14T22:32:16;13.77;;;11.50;;
13568;SDS011;6856;51.460;7.158;2023-12-14T22:34:52;14.07;;;12.10;;
13568;SDS011;6856;51.460;7.158;2023-12-14T22:37:26;14.70;;;11.67;;
13568;SDS011;6856;51.460;7.158;2023-12-14T22:40:01;13.50;;;11.10;;
13568;SDS011;6856;51.460;7.158;2023-12-14T22:42:35;14.90;;;12.57;;
13568;SDS011;6856;51.460;7.158;2023-12-14T22:45:09;13.97;;;11.80;;
13568;SDS011;6856;51.460;7.158;2023-12-14T22:47:43;13.90;;;11.23;;
13568;SDS011;6856;51.460;7.158;2023-12-14T22:50:19;13.77;;;11.40;;
13568;SDS011;6856;51.460;7.158;2023-12-14T22:52:55;12.17;;;9.93;;
13568;SDS011;6856;51.460;7.158;2023-12-14T22:55:29;14.40;;;11.17;;
13568;SDS011;6856;51.460;7.158;2023-12-14T22:58:03;14.37;;;12.00;;
13568;SDS011;6856;51.460;7.158;2023-12-14T23:00:38;13.93;;;11.40;;
13568;SDS011;6856;51.460;7.158;2023-12-14T23:03:18;14.97;;;12.70;;
13568;SDS011;6856;51.460;7.158;2023-12-14T23:05:54;12.57;;;10.63;;
13568;SDS011;6856;51.460;7.158;2023-12-14T23:08:29;13.23;;;11.27;;
13568;SDS011;6856;51.460;7.158;2023-12-14T23:11:03;14.00;;;10.93;;
13568;SDS011;6856;51.460;7.158;2023-12-14T23:13:38;14.83;;;12.07;;
13568;SDS011;6856;51.460;7.158;2023-12-14T23:16:12;14.63;;;12.07;;
13568;SDS011;6856;51.460;7.158;2023-12-14T23:18:46;13.93;;;11.57;;
13568;SDS011;6856;51.460;7.158;2023-12-14T23:21:23;13.77;;;12.07;;
13568;SDS011;6856;51.460;7.158;2023-12-14T23:23:57;12.97;;;11.43;;
13568;SDS011;6856;51.460;7.158;2023-12-14T23:26:32;13.23;;;11.77;;
13568;SDS011;6856;51.460;7.158;2023-12-14T23:29:06;12.30;;;10.60;;
13568;SDS011;6856;51.460;7.158;2023-12-14T23:31:40;14.40;;;12.03;;
13568;SDS011;6856;51.460;7.158;2023-12-14T23:34:14;12.40;;;10.57;;
13568;SDS011;6856;51.460;7.158;2023-12-14T23:36:49;13.10;;;11.67;;
13568;SDS011;6856;51.460;7.158;2023-12-14T23:39:24;14.17;;;11.80;;
13568;SDS011;6856;51.460;7.158;2023-12-14T23:41:58;16.07;;;13.00;;
13568;SDS011;6856;51.460;7.158;2023-12-14T23:44:32;13.70;;;11.57;;
13568;SDS011;6856;51.460;7.158;2023-12-14T23:47:06;13.33;;;11.23;;
13568;SDS011;6856;51.460;7.158;2023-12-14T23:49:41;13.53;;;11.77;;
13568;SDS011;6856;51.460;7.158;2023-12-14T23:52:17;14.20;;;12.43;;
13568;SDS011;6856;51.460;7.158;2023-12-14T23:54:50;12.90;;;11.47;;
13568;SDS011;6856;51.460;7.158;2023-12-14T23:57:28;14.23;;;11.17;;
